sensor_id;sensor_type;location;lat;lon;timestamp;temperature;humidity
66422;DHT22;53228;51.380;0.098;2023-07-22T03:01:15;13.30;99.90
66422;DHT22;53228;51.380;0.098;2023-07-22T03:03:43;13.30;99.90
66422;DHT22;53228;51.380;0.098;2023-07-22T03:48:09;13.30;99.90
66422;DHT22;53228;51.380;0.098;2023-07-22T03:50:37;13.20;99.90
66422;DHT22;53228;51.380;0.098;2023-07-22T03:53:04;13.20;99.90
66422;DHT22;53228;51.380;0.098;2023-07-22T03:55:32;13.20;99.90
66422;DHT22;53228;51.380;0.098;2023-07-22T03:58:00;13.30;99.90
66422;DHT22;53228;51.380;0.098;2023-07-22T04:00:27;13.20;99.90
66422;DHT22;53228;51.380;0.098;2023-07-22T04:02:55;13.20;99.90
66422;DHT22;53228;51.380;0.098;2023-07-22T04:05:23;13.20;99.90
66422;DHT22;53228;51.380;0.098;2023-07-22T04:07:50;12.70;99.90
66422;DHT22;53228;51.380;0.098;2023-07-22T04:10:18;13.20;99.90
66422;DHT22;53228;51.380;0.098;2023-07-22T04:12:46;13.20;99.90
66422;DHT22;53228;51.380;0.098;2023-07-22T04:15:14;13.30;99.90
66422;DHT22;53228;51.380;0.098;2023-07-22T04:17:42;13.30;99.90
66422;DHT22;53228;51.380;0.098;2023-07-22T04:20:10;13.30;99.90
66422;DHT22;53228;51.380;0.098;2023-07-22T04:22:38;13.30;99.90
66422;DHT22;53228;51.380;0.098;2023-07-22T04:25:06;13.30;99.90
66422;DHT22;53228;51.380;0.098;2023-07-22T04:27:35;13.30;99.90
66422;DHT22;53228;51.380;0.098;2023-07-22T04:30:02;13.30;99.90
66422;DHT22;53228;51.380;0.098;2023-07-22T04:32:30;13.30;99.90
66422;DHT22;53228;51.380;0.098;2023-07-22T04:34:58;13.30;99.90
66422;DHT22;53228;51.380;0.098;2023-07-22T04:37:26;13.30;99.90
66422;DHT22;53228;51.380;0.098;2023-07-22T04:39:54;13.30;99.90
66422;DHT22;53228;51.380;0.098;2023-07-22T04:42:22;13.30;99.90
66422;DHT22;53228;51.380;0.098;2023-07-22T04:44:50;13.30;99.90
66422;DHT22;53228;51.380;0.098;2023-07-22T04:47:17;13.30;99.90
66422;DHT22;53228;51.380;0.098;2023-07-22T04:49:45;13.30;99.90
66422;DHT22;53228;51.380;0.098;2023-07-22T04:52:12;13.30;99.90
66422;DHT22;53228;51.380;0.098;2023-07-22T04:54:41;13.40;99.90
66422;DHT22;53228;51.380;0.098;2023-07-22T04:57:09;13.40;99.90
66422;DHT22;53228;51.380;0.098;2023-07-22T04:59:36;13.40;99.90
66422;DHT22;53228;51.380;0.098;2023-07-22T05:02:04;12.30;99.90
66422;DHT22;53228;51.380;0.098;2023-07-22T05:04:32;13.40;99.90
66422;DHT22;53228;51.380;0.098;2023-07-22T05:07:00;13.40;99.90
66422;DHT22;53228;51.380;0.098;2023-07-22T05:09:27;13.40;99.90
66422;DHT22;53228;51.380;0.098;2023-07-22T05:11:55;13.50;99.90
66422;DHT22;53228;51.380;0.098;2023-07-22T05:14:23;13.50;99.90
66422;DHT22;53228;51.380;0.098;2023-07-22T05:16:51;13.50;99.90
66422;DHT22;53228;51.380;0.098;2023-07-22T05:19:19;13.50;99.90
66422;DHT22;53228;51.380;0.098;2023-07-22T05:21:48;13.50;99.90
66422;DHT22;53228;51.380;0.098;2023-07-22T05:24:15;13.50;99.90
66422;DHT22;53228;51.380;0.098;2023-07-22T05:26:43;13.50;99.90
66422;DHT22;53228;51.380;0.098;2023-07-22T05:29:29;13.50;99.90
66422;DHT22;53228;51.380;0.098;2023-07-22T05:31:57;13.60;99.90
66422;DHT22;53228;51.380;0.098;2023-07-22T05:34:24;13.60;99.90
66422;DHT22;53228;51.380;0.098;2023-07-22T05:36:52;13.60;99.90
66422;DHT22;53228;51.380;0.098;2023-07-22T05:39:20;13.60;99.90
66422;DHT22;53228;51.380;0.098;2023-07-22T05:41:47;13.60;99.90
66422;DHT22;53228;51.380;0.098;2023-07-22T05:44:15;12.80;99.90
66422;DHT22;53228;51.380;0.098;2023-07-22T05:46:43;13.60;99.90
66422;DHT22;53228;51.380;0.098;2023-07-22T05:49:10;13.70;99.90
66422;DHT22;53228;51.380;0.098;2023-07-22T05:51:38;13.60;99.90
66422;DHT22;53228;51.380;0.098;2023-07-22T05:54:06;13.70;99.90
66422;DHT22;53228;51.380;0.098;2023-07-22T05:56:33;13.70;99.90
66422;DHT22;53228;51.380;0.098;2023-07-22T05:59:01;13.60;99.90
66422;DHT22;53228;51.380;0.098;2023-07-22T06:01:29;13.70;99.90
66422;DHT22;53228;51.380;0.098;2023-07-22T06:03:57;13.60;99.90
66422;DHT22;53228;51.380;0.098;2023-07-22T06:06:24;13.60;99.90
66422;DHT22;53228;51.380;0.098;2023-07-22T06:08:52;13.60;99.90
66422;DHT22;53228;51.380;0.098;2023-07-22T06:11:19;13.70;99.90
66422;DHT22;53228;51.380;0.098;2023-07-22T06:13:47;13.60;99.90
66422;DHT22;53228;51.380;0.098;2023-07-22T06:16:15;13.60;99.90
66422;DHT22;53228;51.380;0.098;2023-07-22T06:18:42;13.60;99.90
66422;DHT22;53228;51.380;0.098;2023-07-22T06:21:10;13.60;99.90
66422;DHT22;53228;51.380;0.098;2023-07-22T06:23:38;13.50;99.90
66422;DHT22;53228;51.380;0.098;2023-07-22T06:26:05;14.10;99.90
66422;DHT22;53228;51.380;0.098;2023-07-22T06:28:34;13.60;99.90
66422;DHT22;53228;51.380;0.098;2023-07-22T06:31:02;13.50;99.90
66422;DHT22;53228;51.380;0.098;2023-07-22T06:33:29;14.40;99.90
66422;DHT22;53228;51.380;0.098;2023-07-22T06:35:58;13.60;99.90
66422;DHT22;53228;51.380;0.098;2023-07-22T06:38:26;13.50;99.90
66422;DHT22;53228;51.380;0.098;2023-07-22T06:40:54;13.60;99.90
66422;DHT22;53228;51.380;0.098;2023-07-22T06:43:21;13.60;99.90
66422;DHT22;53228;51.380;0.098;2023-07-22T06:45:49;13.60;99.90
66422;DHT22;53228;51.380;0.098;2023-07-22T06:48:17;13.60;99.90
66422;DHT22;53228;51.380;0.098;2023-07-22T06:50:47;13.60;99.90
66422;DHT22;53228;51.380;0.098;2023-07-22T06:53:15;13.60;99.90
66422;DHT22;53228;51.380;0.098;2023-07-22T06:55:52;13.60;99.90
66422;DHT22;53228;51.380;0.098;2023-07-22T06:58:20;13.60;99.90
66422;DHT22;53228;51.380;0.098;2023-07-22T07:00:53;13.60;99.90
66422;DHT22;53228;51.380;0.098;2023-07-22T07:03:23;13.60;99.90
66422;DHT22;53228;51.380;0.098;2023-07-22T07:05:57;13.60;99.90
66422;DHT22;53228;51.380;0.098;2023-07-22T07:08:25;13.70;99.90
66422;DHT22;53228;51.380;0.098;2023-07-22T07:10:52;13.70;99.90
66422;DHT22;53228;51.380;0.098;2023-07-22T07:13:21;13.70;99.90
66422;DHT22;53228;51.380;0.098;2023-07-22T07:15:49;13.70;99.90
66422;DHT22;53228;51.380;0.098;2023-07-22T07:18:17;13.80;99.90
66422;DHT22;53228;51.380;0.098;2023-07-22T07:20:45;13.80;99.90
66422;DHT22;53228;51.380;0.098;2023-07-22T07:23:13;13.80;99.90
66422;DHT22;53228;51.380;0.098;2023-07-22T07:25:41;13.80;99.90
66422;DHT22;53228;51.380;0.098;2023-07-22T07:28:08;13.80;99.90
66422;DHT22;53228;51.380;0.098;2023-07-22T07:30:36;13.80;99.90
66422;DHT22;53228;51.380;0.098;2023-07-22T07:33:04;13.80;99.90
66422;DHT22;53228;51.380;0.098;2023-07-22T07:35:31;13.80;99.90
66422;DHT22;53228;51.380;0.098;2023-07-22T07:37:59;13.70;99.90
66422;DHT22;53228;51.380;0.098;2023-07-22T07:40:27;13.70;99.90
66422;DHT22;53228;51.380;0.098;2023-07-22T07:42:54;13.70;99.90
66422;DHT22;53228;51.380;0.098;2023-07-22T07:45:22;13.70;99.90
66422;DHT22;53228;51.380;0.098;2023-07-22T07:47:50;13.80;99.90
66422;DHT22;53228;51.380;0.098;2023-07-22T07:50:18;13.80;99.90
66422;DHT22;53228;51.380;0.098;2023-07-22T07:52:46;13.80;99.90
66422;DHT22;53228;51.380;0.098;2023-07-22T07:55:13;13.80;99.90
66422;DHT22;53228;51.380;0.098;2023-07-22T07:57:41;13.80;99.90
66422;DHT22;53228;51.380;0.098;2023-07-22T08:00:09;13.80;99.90
66422;DHT22;53228;51.380;0.098;2023-07-22T08:02:37;13.90;99.90
66422;DHT22;53228;51.380;0.098;2023-07-22T08:05:04;13.90;99.90
66422;DHT22;53228;51.380;0.098;2023-07-22T08:07:33;13.90;99.90
66422;DHT22;53228;51.380;0.098;2023-07-22T08:10:00;13.90;99.90
66422;DHT22;53228;51.380;0.098;2023-07-22T08:12:28;13.90;99.90
66422;DHT22;53228;51.380;0.098;2023-07-22T08:14:56;13.90;99.90
66422;DHT22;53228;51.380;0.098;2023-07-22T08:17:23;14.00;99.90
66422;DHT22;53228;51.380;0.098;2023-07-22T08:19:51;14.00;99.90
66422;DHT22;53228;51.380;0.098;2023-07-22T08:22:19;13.90;99.90
66422;DHT22;53228;51.380;0.098;2023-07-22T08:24:48;13.90;99.90
66422;DHT22;53228;51.380;0.098;2023-07-22T08:27:16;13.90;99.90
66422;DHT22;53228;51.380;0.098;2023-07-22T08:29:44;13.90;99.90
66422;DHT22;53228;51.380;0.098;2023-07-22T08:32:11;13.90;99.90
66422;DHT22;53228;51.380;0.098;2023-07-22T08:34:39;13.90;99.90
66422;DHT22;53228;51.380;0.098;2023-07-22T08:37:07;13.80;99.90
66422;DHT22;53228;51.380;0.098;2023-07-22T08:39:34;13.90;99.90
66422;DHT22;53228;51.380;0.098;2023-07-22T08:42:03;13.90;99.90
66422;DHT22;53228;51.380;0.098;2023-07-22T08:44:33;13.90;99.90
66422;DHT22;53228;51.380;0.098;2023-07-22T08:47:05;13.90;99.90
66422;DHT22;53228;51.380;0.098;2023-07-22T08:49:35;14.00;99.90
66422;DHT22;53228;51.380;0.098;2023-07-22T08:52:03;13.90;99.90
66422;DHT22;53228;51.380;0.098;2023-07-22T08:54:31;14.00;99.90
66422;DHT22;53228;51.380;0.098;2023-07-22T08:56:59;14.00;99.90
66422;DHT22;53228;51.380;0.098;2023-07-22T08:59:27;14.10;99.90
66422;DHT22;53228;51.380;0.098;2023-07-22T09:01:56;14.10;99.90
66422;DHT22;53228;51.380;0.098;2023-07-22T09:04:25;14.10;99.90
66422;DHT22;53228;51.380;0.098;2023-07-22T09:06:53;14.10;99.90
66422;DHT22;53228;51.380;0.098;2023-07-22T09:09:22;14.20;99.90
66422;DHT22;53228;51.380;0.098;2023-07-22T09:11:52;14.20;99.90
66422;DHT22;53228;51.380;0.098;2023-07-22T09:14:21;14.30;99.90
66422;DHT22;53228;51.380;0.098;2023-07-22T09:17:04;14.30;99.90
66422;DHT22;53228;51.380;0.098;2023-07-22T09:19:33;14.30;99.90
66422;DHT22;53228;51.380;0.098;2023-07-22T09:22:01;14.40;99.90
66422;DHT22;53228;51.380;0.098;2023-07-22T09:24:29;14.40;99.90
66422;DHT22;53228;51.380;0.098;2023-07-22T09:26:58;14.40;99.90
66422;DHT22;53228;51.380;0.098;2023-07-22T09:29:36;14.50;99.90
66422;DHT22;53228;51.380;0.098;2023-07-22T09:32:04;14.60;99.90
66422;DHT22;53228;51.380;0.098;2023-07-22T09:34:32;14.60;99.90
66422;DHT22;53228;51.380;0.098;2023-07-22T09:37:00;14.60;99.90
66422;DHT22;53228;51.380;0.098;2023-07-22T09:39:28;14.70;99.90
66422;DHT22;53228;51.380;0.098;2023-07-22T09:41:56;14.80;99.90
66422;DHT22;53228;51.380;0.098;2023-07-22T09:44:31;14.80;99.90
66422;DHT22;53228;51.380;0.098;2023-07-22T09:47:08;14.90;99.90
66422;DHT22;53228;51.380;0.098;2023-07-22T09:49:40;14.90;99.90
66422;DHT22;53228;51.380;0.098;2023-07-22T09:52:10;15.00;99.90
66422;DHT22;53228;51.380;0.098;2023-07-22T09:54:48;15.10;99.90
66422;DHT22;53228;51.380;0.098;2023-07-22T09:57:17;15.20;99.90
66422;DHT22;53228;51.380;0.098;2023-07-22T09:59:47;15.30;99.90
66422;DHT22;53228;51.380;0.098;2023-07-22T10:02:18;15.40;99.90
66422;DHT22;53228;51.380;0.098;2023-07-22T10:04:47;15.40;99.90
66422;DHT22;53228;51.380;0.098;2023-07-22T10:07:16;15.60;99.90
66422;DHT22;53228;51.380;0.098;2023-07-22T10:09:46;15.60;99.90
66422;DHT22;53228;51.380;0.098;2023-07-22T10:12:14;15.70;99.90
66422;DHT22;53228;51.380;0.098;2023-07-22T10:14:43;15.80;99.90
66422;DHT22;53228;51.380;0.098;2023-07-22T10:17:12;15.80;99.90
66422;DHT22;53228;51.380;0.098;2023-07-22T10:19:41;15.90;99.90
66422;DHT22;53228;51.380;0.098;2023-07-22T10:22:09;15.90;99.90
66422;DHT22;53228;51.380;0.098;2023-07-22T10:24:39;15.90;99.90
66422;DHT22;53228;51.380;0.098;2023-07-22T10:27:08;15.90;99.90
66422;DHT22;53228;51.380;0.098;2023-07-22T10:29:36;16.00;99.90
66422;DHT22;53228;51.380;0.098;2023-07-22T10:32:05;16.00;99.90
66422;DHT22;53228;51.380;0.098;2023-07-22T10:34:33;16.10;99.90
66422;DHT22;53228;51.380;0.098;2023-07-22T10:37:01;16.10;99.90
66422;DHT22;53228;51.380;0.098;2023-07-22T10:39:29;16.10;99.90
66422;DHT22;53228;51.380;0.098;2023-07-22T10:42:03;16.10;99.90
66422;DHT22;53228;51.380;0.098;2023-07-22T10:44:36;16.00;99.90
66422;DHT22;53228;51.380;0.098;2023-07-22T10:47:05;16.10;99.90
66422;DHT22;53228;51.380;0.098;2023-07-22T10:49:47;16.10;99.90
66422;DHT22;53228;51.380;0.098;2023-07-22T10:52:14;16.10;99.90
66422;DHT22;53228;51.380;0.098;2023-07-22T10:54:43;16.10;99.90
66422;DHT22;53228;51.380;0.098;2023-07-22T10:59:51;16.20;99.90
66422;DHT22;53228;51.380;0.098;2023-07-22T11:02:27;16.20;99.90
66422;DHT22;53228;51.380;0.098;2023-07-22T11:04:58;16.20;99.90
66422;DHT22;53228;51.380;0.098;2023-07-22T11:07:45;16.30;99.90
66422;DHT22;53228;51.380;0.098;2023-07-22T11:10:18;16.30;99.90
66422;DHT22;53228;51.380;0.098;2023-07-22T11:12:48;16.30;99.90
66422;DHT22;53228;51.380;0.098;2023-07-22T11:15:16;16.30;99.90
66422;DHT22;53228;51.380;0.098;2023-07-22T11:17:45;16.00;99.90
66422;DHT22;53228;51.380;0.098;2023-07-22T11:20:13;16.30;99.90
66422;DHT22;53228;51.380;0.098;2023-07-22T11:22:41;16.30;99.90
66422;DHT22;53228;51.380;0.098;2023-07-22T11:25:09;16.30;99.90
66422;DHT22;53228;51.380;0.098;2023-07-22T11:27:37;16.30;99.90
66422;DHT22;53228;51.380;0.098;2023-07-22T11:30:05;16.40;99.90
66422;DHT22;53228;51.380;0.098;2023-07-22T11:32:33;16.50;99.90
66422;DHT22;53228;51.380;0.098;2023-07-22T11:35:01;16.60;99.90
66422;DHT22;53228;51.380;0.098;2023-07-22T11:37:29;16.60;99.90
66422;DHT22;53228;51.380;0.098;2023-07-22T11:40:00;16.70;99.90
66422;DHT22;53228;51.380;0.098;2023-07-22T11:42:29;16.70;99.90
66422;DHT22;53228;51.380;0.098;2023-07-22T11:44:57;16.70;99.90
66422;DHT22;53228;51.380;0.098;2023-07-22T11:47:31;16.70;99.90
66422;DHT22;53228;51.380;0.098;2023-07-22T11:49:59;16.70;99.90
66422;DHT22;53228;51.380;0.098;2023-07-22T11:52:28;16.70;99.90
66422;DHT22;53228;51.380;0.098;2023-07-22T11:55:01;16.70;99.90
66422;DHT22;53228;51.380;0.098;2023-07-22T11:57:29;16.70;99.90
66422;DHT22;53228;51.380;0.098;2023-07-22T11:59:57;16.70;99.90
66422;DHT22;53228;51.380;0.098;2023-07-22T12:02:28;16.60;99.90
66422;DHT22;53228;51.380;0.098;2023-07-22T12:05:00;16.60;99.90
66422;DHT22;53228;51.380;0.098;2023-07-22T12:07:31;16.60;99.90
66422;DHT22;53228;51.380;0.098;2023-07-22T12:10:01;16.50;99.90
66422;DHT22;53228;51.380;0.098;2023-07-22T12:12:34;16.40;99.90
66422;DHT22;53228;51.380;0.098;2023-07-22T12:15:09;16.40;99.90
66422;DHT22;53228;51.380;0.098;2023-07-22T12:17:47;16.50;99.90
66422;DHT22;53228;51.380;0.098;2023-07-22T12:20:16;16.40;99.90
66422;DHT22;53228;51.380;0.098;2023-07-22T12:22:44;16.50;99.90
66422;DHT22;53228;51.380;0.098;2023-07-22T12:25:12;16.50;99.90
66422;DHT22;53228;51.380;0.098;2023-07-22T12:27:40;16.50;99.90
66422;DHT22;53228;51.380;0.098;2023-07-22T12:30:08;16.40;99.90
66422;DHT22;53228;51.380;0.098;2023-07-22T12:32:35;16.40;99.90
66422;DHT22;53228;51.380;0.098;2023-07-22T12:35:04;16.40;99.90
66422;DHT22;53228;51.380;0.098;2023-07-22T12:37:32;16.50;99.90
66422;DHT22;53228;51.380;0.098;2023-07-22T12:39:59;16.40;99.90
66422;DHT22;53228;51.380;0.098;2023-07-22T12:42:27;16.50;99.90
66422;DHT22;53228;51.380;0.098;2023-07-22T12:44:54;16.50;99.90
66422;DHT22;53228;51.380;0.098;2023-07-22T12:47:22;16.60;99.90
66422;DHT22;53228;51.380;0.098;2023-07-22T12:49:50;16.60;99.90
66422;DHT22;53228;51.380;0.098;2023-07-22T12:52:17;16.50;99.90
66422;DHT22;53228;51.380;0.098;2023-07-22T12:54:45;16.60;99.90
66422;DHT22;53228;51.380;0.098;2023-07-22T12:57:13;16.60;99.90
66422;DHT22;53228;51.380;0.098;2023-07-22T12:59:40;16.60;99.90
66422;DHT22;53228;51.380;0.098;2023-07-22T13:02:08;16.60;99.90
66422;DHT22;53228;51.380;0.098;2023-07-22T13:04:36;16.60;99.90
66422;DHT22;53228;51.380;0.098;2023-07-22T13:07:04;16.70;99.90
66422;DHT22;53228;51.380;0.098;2023-07-22T13:09:31;16.70;99.90
66422;DHT22;53228;51.380;0.098;2023-07-22T13:11:59;16.70;99.90
66422;DHT22;53228;51.380;0.098;2023-07-22T13:14:27;16.80;99.90
66422;DHT22;53228;51.380;0.098;2023-07-22T13:16:54;16.80;99.90
66422;DHT22;53228;51.380;0.098;2023-07-22T13:19:22;16.80;99.90
66422;DHT22;53228;51.380;0.098;2023-07-22T13:21:49;16.70;99.90
66422;DHT22;53228;51.380;0.098;2023-07-22T13:24:17;16.80;99.90
66422;DHT22;53228;51.380;0.098;2023-07-22T13:26:45;16.80;99.90
66422;DHT22;53228;51.380;0.098;2023-07-22T13:29:12;16.70;99.90
66422;DHT22;53228;51.380;0.098;2023-07-22T13:31:40;16.70;99.90
66422;DHT22;53228;51.380;0.098;2023-07-22T13:34:08;16.70;99.90
66422;DHT22;53228;51.380;0.098;2023-07-22T13:36:35;16.70;99.90
66422;DHT22;53228;51.380;0.098;2023-07-22T13:39:03;16.60;99.90
66422;DHT22;53228;51.380;0.098;2023-07-22T13:41:31;16.60;99.90
66422;DHT22;53228;51.380;0.098;2023-07-22T13:43:58;16.60;99.90
66422;DHT22;53228;51.380;0.098;2023-07-22T13:48:54;16.60;99.90
66422;DHT22;53228;51.380;0.098;2023-07-22T13:51:22;16.50;99.90
66422;DHT22;53228;51.380;0.098;2023-07-22T13:53:49;15.70;99.90
66422;DHT22;53228;51.380;0.098;2023-07-22T13:56:19;16.60;99.90
66422;DHT22;53228;51.380;0.098;2023-07-22T13:58:48;16.50;99.90
66422;DHT22;53228;51.380;0.098;2023-07-22T14:01:16;16.50;99.90
66422;DHT22;53228;51.380;0.098;2023-07-22T14:03:47;16.60;99.90
66422;DHT22;53228;51.380;0.098;2023-07-22T14:06:20;16.60;99.90
66422;DHT22;53228;51.380;0.098;2023-07-22T14:08:50;16.60;99.90
66422;DHT22;53228;51.380;0.098;2023-07-22T14:11:23;16.70;99.90
66422;DHT22;53228;51.380;0.098;2023-07-22T14:13:56;16.80;99.90
66422;DHT22;53228;51.380;0.098;2023-07-22T14:16:24;16.80;99.90
66422;DHT22;53228;51.380;0.098;2023-07-22T14:18:55;16.90;99.90
66422;DHT22;53228;51.380;0.098;2023-07-22T14:21:26;17.00;99.90
66422;DHT22;53228;51.380;0.098;2023-07-22T14:23:55;17.00;99.90
66422;DHT22;53228;51.380;0.098;2023-07-22T14:26:25;17.10;99.90
66422;DHT22;53228;51.380;0.098;2023-07-22T14:28:54;17.20;99.90
66422;DHT22;53228;51.380;0.098;2023-07-22T14:31:29;17.20;99.90
66422;DHT22;53228;51.380;0.098;2023-07-22T14:33:58;17.20;99.90
66422;DHT22;53228;51.380;0.098;2023-07-22T14:36:27;17.30;99.90
66422;DHT22;53228;51.380;0.098;2023-07-22T14:38:56;17.20;99.90
66422;DHT22;53228;51.380;0.098;2023-07-22T14:41:30;17.30;99.90
66422;DHT22;53228;51.380;0.098;2023-07-22T14:43:58;17.30;99.90
66422;DHT22;53228;51.380;0.098;2023-07-22T14:46:30;17.20;99.90
66422;DHT22;53228;51.380;0.098;2023-07-22T14:48:59;17.20;99.90
66422;DHT22;53228;51.380;0.098;2023-07-22T14:51:33;17.20;99.90
66422;DHT22;53228;51.380;0.098;2023-07-22T14:54:06;17.10;99.90
66422;DHT22;53228;51.380;0.098;2023-07-22T14:56:38;17.20;99.90
66422;DHT22;53228;51.380;0.098;2023-07-22T14:59:08;17.20;99.90
66422;DHT22;53228;51.380;0.098;2023-07-22T15:01:41;17.00;99.90
66422;DHT22;53228;51.380;0.098;2023-07-22T15:04:11;17.20;99.90
66422;DHT22;53228;51.380;0.098;2023-07-22T15:06:53;17.20;99.90
66422;DHT22;53228;51.380;0.098;2023-07-22T15:09:23;17.20;99.90
66422;DHT22;53228;51.380;0.098;2023-07-22T15:12:09;17.20;99.90
66422;DHT22;53228;51.380;0.098;2023-07-22T15:14:43;17.20;99.90
66422;DHT22;53228;51.380;0.098;2023-07-22T15:17:17;17.30;99.90
66422;DHT22;53228;51.380;0.098;2023-07-22T15:19:46;17.30;99.90
66422;DHT22;53228;51.380;0.098;2023-07-22T15:22:17;17.40;99.90
66422;DHT22;53228;51.380;0.098;2023-07-22T15:24:46;17.40;99.90
66422;DHT22;53228;51.380;0.098;2023-07-22T15:27:19;17.50;99.90
66422;DHT22;53228;51.380;0.098;2023-07-22T15:29:49;17.50;99.90
66422;DHT22;53228;51.380;0.098;2023-07-22T15:32:18;17.50;99.90
66422;DHT22;53228;51.380;0.098;2023-07-22T15:34:50;17.60;99.90
66422;DHT22;53228;51.380;0.098;2023-07-22T15:37:22;17.60;99.90
66422;DHT22;53228;51.380;0.098;2023-07-22T15:39:53;17.70;99.90
66422;DHT22;53228;51.380;0.098;2023-07-22T15:42:30;17.80;99.90
66422;DHT22;53228;51.380;0.098;2023-07-22T15:45:01;17.80;99.90
66422;DHT22;53228;51.380;0.098;2023-07-22T15:47:32;17.80;99.90
66422;DHT22;53228;51.380;0.098;2023-07-22T15:50:02;17.90;99.90
66422;DHT22;53228;51.380;0.098;2023-07-22T15:52:36;17.90;99.90
66422;DHT22;53228;51.380;0.098;2023-07-22T15:55:07;17.90;99.90
66422;DHT22;53228;51.380;0.098;2023-07-22T15:57:44;18.00;99.90
66422;DHT22;53228;51.380;0.098;2023-07-22T16:00:16;18.00;99.90
66422;DHT22;53228;51.380;0.098;2023-07-22T16:02:49;18.00;99.90
66422;DHT22;53228;51.380;0.098;2023-07-22T16:05:18;18.00;99.90
66422;DHT22;53228;51.380;0.098;2023-07-22T16:07:52;18.10;99.90
66422;DHT22;53228;51.380;0.098;2023-07-22T16:10:21;18.10;99.90
66422;DHT22;53228;51.380;0.098;2023-07-22T16:12:51;18.10;99.90
66422;DHT22;53228;51.380;0.098;2023-07-22T16:15:22;18.10;99.90
66422;DHT22;53228;51.380;0.098;2023-07-22T16:18:04;18.00;99.90
66422;DHT22;53228;51.380;0.098;2023-07-22T16:20:39;18.00;99.90
66422;DHT22;53228;51.380;0.098;2023-07-22T16:23:10;18.00;99.90
66422;DHT22;53228;51.380;0.098;2023-07-22T16:25:37;18.00;99.90
66422;DHT22;53228;51.380;0.098;2023-07-22T16:28:10;18.00;99.90
66422;DHT22;53228;51.380;0.098;2023-07-22T16:30:38;17.90;99.90
66422;DHT22;53228;51.380;0.098;2023-07-22T16:33:08;18.00;99.90
66422;DHT22;53228;51.380;0.098;2023-07-22T16:35:38;18.00;99.90
66422;DHT22;53228;51.380;0.098;2023-07-22T16:38:10;18.00;99.90
66422;DHT22;53228;51.380;0.098;2023-07-22T16:40:39;18.10;99.90
66422;DHT22;53228;51.380;0.098;2023-07-22T16:43:10;18.20;99.90
66422;DHT22;53228;51.380;0.098;2023-07-22T16:45:39;18.30;99.90
66422;DHT22;53228;51.380;0.098;2023-07-22T16:48:11;18.30;99.90
66422;DHT22;53228;51.380;0.098;2023-07-22T16:50:41;18.40;99.90
66422;DHT22;53228;51.380;0.098;2023-07-22T16:53:13;18.40;99.90
66422;DHT22;53228;51.380;0.098;2023-07-22T16:55:49;18.50;99.90
66422;DHT22;53228;51.380;0.098;2023-07-22T16:58:21;18.50;99.90
66422;DHT22;53228;51.380;0.098;2023-07-22T17:00:52;18.50;99.90
66422;DHT22;53228;51.380;0.098;2023-07-22T17:03:25;18.50;99.90
66422;DHT22;53228;51.380;0.098;2023-07-22T17:05:52;18.50;99.90
66422;DHT22;53228;51.380;0.098;2023-07-22T17:08:20;18.50;99.90
66422;DHT22;53228;51.380;0.098;2023-07-22T17:10:48;18.50;99.90
66422;DHT22;53228;51.380;0.098;2023-07-22T17:13:15;18.50;99.90
66422;DHT22;53228;51.380;0.098;2023-07-22T17:15:45;18.50;99.90
66422;DHT22;53228;51.380;0.098;2023-07-22T17:18:13;18.50;99.90
66422;DHT22;53228;51.380;0.098;2023-07-22T17:20:40;18.50;99.90
66422;DHT22;53228;51.380;0.098;2023-07-22T17:23:08;18.50;99.90
66422;DHT22;53228;51.380;0.098;2023-07-22T17:25:36;18.50;99.90
66422;DHT22;53228;51.380;0.098;2023-07-22T17:28:04;18.50;99.90
66422;DHT22;53228;51.380;0.098;2023-07-22T17:30:32;18.50;99.90
66422;DHT22;53228;51.380;0.098;2023-07-22T17:33:02;18.40;99.90
66422;DHT22;53228;51.380;0.098;2023-07-22T17:35:31;18.40;99.90
66422;DHT22;53228;51.380;0.098;2023-07-22T17:38:02;18.30;99.90
66422;DHT22;53228;51.380;0.098;2023-07-22T17:40:31;18.30;99.90
66422;DHT22;53228;51.380;0.098;2023-07-22T17:42:59;18.20;99.90
66422;DHT22;53228;51.380;0.098;2023-07-22T17:45:27;18.20;99.90
66422;DHT22;53228;51.380;0.098;2023-07-22T17:47:54;18.20;99.90
66422;DHT22;53228;51.380;0.098;2023-07-22T17:50:22;18.10;99.90
66422;DHT22;53228;51.380;0.098;2023-07-22T17:52:50;18.10;99.90
66422;DHT22;53228;51.380;0.098;2023-07-22T17:55:17;18.10;99.90
66422;DHT22;53228;51.380;0.098;2023-07-22T17:57:45;18.10;99.90
66422;DHT22;53228;51.380;0.098;2023-07-22T18:00:13;18.10;99.90
66422;DHT22;53228;51.380;0.098;2023-07-22T18:02:41;18.10;99.90
66422;DHT22;53228;51.380;0.098;2023-07-22T18:05:09;18.00;99.90
66422;DHT22;53228;51.380;0.098;2023-07-22T18:07:37;18.00;99.90
66422;DHT22;53228;51.380;0.098;2023-07-22T18:10:05;18.00;99.90
66422;DHT22;53228;51.380;0.098;2023-07-22T18:12:33;18.00;99.90
66422;DHT22;53228;51.380;0.098;2023-07-22T18:15:01;18.00;99.90
66422;DHT22;53228;51.380;0.098;2023-07-22T18:17:29;18.00;99.90
66422;DHT22;53228;51.380;0.098;2023-07-22T18:19:57;17.90;99.90
66422;DHT22;53228;51.380;0.098;2023-07-22T18:22:25;17.90;99.90
66422;DHT22;53228;51.380;0.098;2023-07-22T18:24:53;17.90;99.90
66422;DHT22;53228;51.380;0.098;2023-07-22T18:27:20;17.80;99.90
66422;DHT22;53228;51.380;0.098;2023-07-22T18:29:48;17.80;99.90
66422;DHT22;53228;51.380;0.098;2023-07-22T18:32:16;17.80;99.90
66422;DHT22;53228;51.380;0.098;2023-07-22T18:34:43;17.80;99.90
66422;DHT22;53228;51.380;0.098;2023-07-22T18:37:12;17.70;99.90
66422;DHT22;53228;51.380;0.098;2023-07-22T18:39:40;17.70;99.90
66422;DHT22;53228;51.380;0.098;2023-07-22T18:42:08;17.70;99.90
66422;DHT22;53228;51.380;0.098;2023-07-22T18:44:35;17.60;99.90
66422;DHT22;53228;51.380;0.098;2023-07-22T18:47:03;17.60;99.90
66422;DHT22;53228;51.380;0.098;2023-07-22T18:49:33;17.60;99.90
66422;DHT22;53228;51.380;0.098;2023-07-22T18:52:01;17.60;99.90
66422;DHT22;53228;51.380;0.098;2023-07-22T18:54:29;17.60;99.90
66422;DHT22;53228;51.380;0.098;2023-07-22T18:56:56;17.60;99.90
66422;DHT22;53228;51.380;0.098;2023-07-22T18:59:24;17.50;99.90
66422;DHT22;53228;51.380;0.098;2023-07-22T19:01:52;17.60;99.90
66422;DHT22;53228;51.380;0.098;2023-07-22T19:04:20;17.50;99.90
66422;DHT22;53228;51.380;0.098;2023-07-22T19:06:48;17.50;99.90
66422;DHT22;53228;51.380;0.098;2023-07-22T19:09:19;17.50;99.90
66422;DHT22;53228;51.380;0.098;2023-07-22T19:11:47;17.50;99.90
66422;DHT22;53228;51.380;0.098;2023-07-22T19:14:15;17.50;99.90
66422;DHT22;53228;51.380;0.098;2023-07-22T19:16:55;17.40;99.90
66422;DHT22;53228;51.380;0.098;2023-07-22T19:19:23;17.40;99.90
66422;DHT22;53228;51.380;0.098;2023-07-22T19:21:52;17.40;99.90
66422;DHT22;53228;51.380;0.098;2023-07-22T19:24:22;17.40;99.90
66422;DHT22;53228;51.380;0.098;2023-07-22T19:26:50;17.40;99.90
66422;DHT22;53228;51.380;0.098;2023-07-22T19:29:17;17.40;99.90